createdAt,value
2018-05-21T00:00:34.263Z,63.00
2018-05-21T00:01:34.250Z,62.90
2018-05-21T00:02:34.247Z,63.96
2018-05-21T00:03:34.259Z,63.38
2018-05-21T00:04:34.209Z,62.33
2018-05-21T00:05:34.196Z,62.52
2018-05-21T00:06:34.183Z,63.38
2018-05-21T00:07:34.170Z,64.92
2018-05-21T00:08:34.154Z,64.05
2018-05-21T00:09:34.142Z,61.94
2018-05-21T00:10:34.131Z,63.57
2018-05-21T00:11:34.116Z,62.62
2018-05-21T00:12:34.103Z,62.71
2018-05-21T00:13:34.097Z,62.42
2018-05-21T00:14:34.074Z,63.38
2018-05-21T00:15:34.062Z,61.85
2018-05-21T00:16:34.052Z,62.42
2018-05-21T00:17:34.041Z,63.38
2018-05-21T00:18:34.020Z,62.23
2018-05-21T00:19:34.034Z,61.56
2018-05-21T00:20:34.034Z,61.94
2018-05-21T00:21:34.027Z,61.37
2018-05-21T00:22:34.009Z,61.75
2018-05-21T00:23:33.996Z,61.85
2018-05-21T00:24:33.967Z,61.08
2018-05-21T00:25:33.954Z,62.07
2018-05-21T00:26:33.955Z,63.29
2018-05-21T00:27:33.941Z,61.56
2018-05-21T00:28:33.924Z,61.46
2018-05-21T00:29:33.897Z,63.09
2018-05-21T00:30:33.900Z,62.04
2018-05-21T00:31:33.877Z,62.81
2018-05-21T00:32:33.867Z,61.85
2018-05-21T00:33:33.845Z,61.75
2018-05-21T00:34:33.843Z,62.33
2018-05-21T00:35:33.823Z,62.52
2018-05-21T00:36:33.826Z,61.94
2018-05-21T00:37:33.801Z,62.90
2018-05-21T00:38:33.802Z,64.63
2018-05-21T00:39:33.769Z,62.42
2018-05-21T00:40:33.772Z,62.33
2018-05-21T00:41:33.754Z,61.94
2018-05-21T00:42:33.731Z,62.42
2018-05-21T00:43:33.712Z,63.29
2018-05-21T00:44:33.784Z,62.13
2018-05-21T00:45:33.705Z,62.42
2018-05-21T00:46:33.683Z,62.42
2018-05-21T00:47:33.663Z,62.23
2018-05-21T00:48:33.654Z,62.81
2018-05-21T00:49:33.654Z,62.33
2018-05-21T00:50:33.639Z,62.71
2018-05-21T00:51:33.614Z,62.81
2018-05-21T00:52:33.619Z,61.56
2018-05-21T00:53:33.608Z,62.42
2018-05-21T00:54:33.579Z,63.19
2018-05-21T00:55:33.576Z,62.13
2018-05-21T00:56:33.556Z,62.81
2018-05-21T00:57:33.544Z,62.13
2018-05-21T00:58:33.535Z,62.42
2018-05-21T00:59:33.520Z,64.92
2018-05-21T01:00:33.515Z,65.94
2018-05-21T01:01:33.502Z,65.17
2018-05-21T01:02:33.483Z,64.22
2018-05-21T01:03:33.464Z,63.54
2018-05-21T01:04:33.441Z,64.12
2018-05-21T01:05:33.426Z,64.40
2018-05-21T01:06:33.425Z,63.06
2018-05-21T01:07:33.423Z,63.48
2018-05-21T01:08:33.401Z,63.54
2018-05-21T01:09:33.391Z,63.38
2018-05-21T01:10:33.360Z,62.33
2018-05-21T01:11:33.350Z,62.90
2018-05-21T01:12:33.341Z,63.35
2018-05-21T01:13:33.348Z,63.29
2018-05-21T01:14:33.324Z,62.90
2018-05-21T01:15:33.296Z,64.34
2018-05-21T01:16:33.295Z,64.02
2018-05-21T01:17:33.283Z,63.09
2018-05-21T01:18:33.280Z,63.57
2018-05-21T01:19:33.254Z,63.57
2018-05-21T01:20:33.240Z,63.29
2018-05-21T01:21:33.234Z,64.25
2018-05-21T01:22:33.207Z,62.71
2018-05-21T01:23:33.204Z,63.48
2018-05-21T01:24:33.183Z,65.26
2018-05-21T01:25:33.177Z,63.48
2018-05-21T01:26:33.154Z,63.35
2018-05-21T01:27:33.159Z,65.08
2018-05-21T01:28:33.137Z,64.59
2018-05-21T01:29:33.121Z,65.08
2018-05-21T01:30:33.105Z,64.02
2018-05-21T01:31:33.093Z,64.22
2018-05-21T01:32:33.080Z,64.02
2018-05-21T01:33:33.070Z,64.69
2018-05-21T01:34:33.057Z,64.59
2018-05-21T01:35:33.144Z,64.50
2018-05-21T01:36:33.012Z,64.59
2018-05-21T01:37:33.027Z,66.03
2018-05-21T01:38:33.002Z,64.89
2018-05-21T01:39:32.995Z,64.59
2018-05-21T01:40:32.967Z,63.92
2018-05-21T01:41:32.957Z,64.12
2018-05-21T01:42:32.939Z,64.69
2018-05-21T01:43:32.924Z,64.69
2018-05-21T01:44:32.916Z,64.22
2018-05-21T01:45:32.906Z,64.12
2018-05-21T01:46:32.886Z,64.12
2018-05-21T01:47:32.877Z,64.59
2018-05-21T01:48:32.874Z,64.79
2018-05-21T01:49:32.852Z,65.08
2018-05-21T01:50:32.851Z,65.94
2018-05-21T01:51:35.146Z,64.98
2018-05-21T01:52:32.813Z,65.84
2018-05-21T01:53:32.800Z,65.65
2018-05-21T01:54:32.801Z,65.84
2018-05-21T01:55:32.787Z,65.65
2018-05-21T01:56:32.762Z,65.26
2018-05-21T01:57:32.772Z,65.84
2018-05-21T01:58:32.727Z,66.22
2018-05-21T01:59:32.761Z,64.89
2018-05-21T02:00:32.714Z,65.26
2018-05-21T02:01:32.698Z,65.75
2018-05-21T02:02:32.682Z,65.46
2018-05-21T02:03:32.666Z,65.08
2018-05-21T02:04:32.660Z,65.75
2018-05-21T02:05:32.650Z,65.26
2018-05-21T02:06:32.622Z,65.36
2018-05-21T02:07:32.613Z,65.94
2018-05-21T02:08:32.708Z,65.65
2018-05-21T02:09:32.583Z,66.42
2018-05-21T02:10:32.573Z,66.99
2018-05-21T02:11:32.570Z,66.80
2018-05-21T02:12:32.560Z,66.22
2018-05-21T02:13:32.532Z,66.48
2018-05-21T02:14:32.525Z,66.42
2018-05-21T02:15:32.515Z,67.72
2018-05-21T02:16:32.504Z,67.63
2018-05-21T02:17:32.487Z,67.82
2018-05-21T02:18:32.465Z,67.54
2018-05-21T02:19:32.461Z,67.34
2018-05-21T02:20:32.431Z,68.01
2018-05-21T02:21:32.426Z,67.25
2018-05-21T02:22:32.412Z,67.91
2018-05-21T02:23:32.396Z,67.34
2018-05-21T02:24:32.396Z,67.44
2018-05-21T02:25:32.379Z,67.34
2018-05-21T02:26:32.371Z,67.82
2018-05-21T02:27:32.355Z,67.54
2018-05-21T02:28:32.329Z,67.44
2018-05-21T02:29:32.393Z,67.54
2018-05-21T02:30:32.319Z,67.85
2018-05-21T02:31:32.294Z,67.82
2018-05-21T02:32:32.275Z,68.01
2018-05-21T02:33:32.233Z,68.21
2018-05-21T02:34:32.224Z,68.40
2018-05-21T02:35:32.205Z,69.07
2018-05-21T02:36:32.251Z,69.64
2018-05-21T02:37:32.180Z,69.93
2018-05-21T02:38:32.167Z,68.87
2018-05-21T02:39:32.155Z,70.41
2018-05-21T02:40:32.145Z,70.21
2018-05-21T02:41:32.129Z,70.31
2018-05-21T02:42:32.178Z,71.17
2018-05-21T02:43:32.097Z,71.14
2018-05-21T02:44:32.084Z,70.76
2018-05-21T02:45:32.072Z,70.09
2018-05-21T02:46:32.065Z,69.93
2018-05-21T02:47:32.052Z,70.21
2018-05-21T02:48:32.058Z,70.12
2018-05-21T02:49:32.042Z,70.31
2018-05-21T02:50:32.031Z,69.54
2018-05-21T02:51:32.017Z,70.31
2018-05-21T02:52:32.007Z,70.21
2018-05-21T02:53:31.985Z,71.08
2018-05-21T02:54:31.979Z,71.52
2018-05-21T02:55:31.959Z,71.52
2018-05-21T02:56:34.612Z,71.42
2018-05-21T02:57:31.934Z,71.52
2018-05-21T02:58:31.928Z,72.09
2018-05-21T02:59:31.926Z,72.67
2018-05-21T03:00:31.905Z,71.42
2018-05-21T03:01:31.898Z,71.04
2018-05-21T03:02:31.860Z,71.14
2018-05-21T03:03:31.854Z,71.42
2018-05-21T03:04:31.841Z,72.09
2018-05-21T03:05:31.817Z,72.00
2018-05-21T03:06:31.822Z,71.91
2018-05-21T03:07:31.787Z,71.71
2018-05-21T03:08:31.771Z,72.67
2018-05-21T03:09:31.768Z,72.29
2018-05-21T03:10:31.749Z,73.21
2018-05-21T03:11:31.729Z,73.40
2018-05-21T03:12:31.727Z,74.16
2018-05-21T03:13:31.706Z,75.51
2018-05-21T03:14:31.710Z,74.55
2018-05-21T03:15:31.701Z,76.08
2018-05-21T03:16:31.670Z,76.42
2018-05-21T03:17:31.665Z,77.19
2018-05-21T03:18:31.646Z,76.71
2018-05-21T03:19:31.621Z,76.62
2018-05-21T03:20:31.614Z,77.86
2018-05-21T03:21:31.592Z,77.67
2018-05-21T03:22:31.587Z,77.38
2018-05-21T03:23:31.564Z,78.34
2018-05-21T03:24:31.554Z,77.57
2018-05-21T03:25:31.539Z,77.38
2018-05-21T03:26:31.541Z,77.38
2018-05-21T03:27:31.506Z,79.68
2018-05-21T03:28:31.500Z,78.43
2018-05-21T03:29:31.484Z,79.00
2018-05-21T03:30:31.464Z,78.05
2018-05-21T03:31:31.453Z,77.76
2018-05-21T03:32:31.433Z,77.76
2018-05-21T03:33:31.433Z,77.67
2018-05-21T03:34:31.420Z,77.48
2018-05-21T03:35:31.412Z,77.09
2018-05-21T03:36:31.383Z,77.19
2018-05-21T03:37:31.360Z,77.57
2018-05-21T03:38:31.363Z,79.20
2018-05-21T03:39:31.328Z,79.29
2018-05-21T03:40:31.338Z,78.53
2018-05-21T03:41:31.329Z,78.43
2018-05-21T03:42:31.296Z,78.63
2018-05-21T03:43:31.277Z,78.63
2018-05-21T03:44:31.276Z,78.43
2018-05-21T03:45:31.263Z,78.43
2018-05-21T03:46:31.239Z,78.43
2018-05-21T03:47:32.106Z,80.54
2018-05-21T03:48:31.208Z,80.54
2018-05-21T03:49:31.202Z,79.10
2018-05-21T03:50:31.176Z,78.43
2018-05-21T03:51:31.171Z,78.81
2018-05-21T03:52:31.138Z,79.20
2018-05-21T03:53:31.128Z,79.00
2018-05-21T03:54:31.112Z,78.43
2018-05-21T03:55:31.100Z,78.53
2018-05-21T03:56:31.083Z,78.72
2018-05-21T03:57:31.067Z,78.47
2018-05-21T03:58:31.071Z,77.90
2018-05-21T03:59:31.042Z,77.23
2018-05-21T04:00:31.028Z,77.61
2018-05-21T04:01:31.011Z,76.46
2018-05-21T04:02:31.006Z,77.23
2018-05-21T04:03:30.985Z,77.33
2018-05-21T04:04:31.061Z,77.42
2018-05-21T04:05:30.924Z,78.38
2018-05-21T04:06:30.937Z,78.28
2018-05-21T04:07:30.921Z,77.70
2018-05-21T04:08:30.908Z,77.99
2018-05-21T04:09:30.896Z,77.42
2018-05-21T04:10:30.874Z,77.42
2018-05-21T04:11:30.862Z,77.13
2018-05-21T04:12:30.848Z,76.65
2018-05-21T04:13:30.834Z,77.08
2018-05-21T04:14:30.847Z,77.42
2018-05-21T04:15:30.799Z,77.17
2018-05-21T04:16:30.796Z,77.17
2018-05-21T04:17:30.784Z,76.79
2018-05-21T04:18:30.770Z,76.60
2018-05-21T04:19:30.748Z,76.79
2018-05-21T04:20:30.732Z,76.60
2018-05-21T04:21:30.732Z,76.21
2018-05-21T04:22:30.708Z,76.31
2018-05-21T04:23:30.691Z,77.26
2018-05-21T04:24:30.671Z,77.26
2018-05-21T04:25:30.730Z,77.26
2018-05-21T04:26:30.649Z,77.26
2018-05-21T04:27:30.630Z,77.26
2018-05-21T04:28:30.633Z,76.79
2018-05-21T04:29:30.606Z,76.69
2018-05-21T04:30:30.590Z,76.89
2018-05-21T04:31:30.587Z,76.60
2018-05-21T04:32:30.571Z,76.69
2018-05-21T04:33:30.562Z,77.46
2018-05-21T04:34:30.534Z,77.75
2018-05-21T04:35:30.526Z,78.42
2018-05-21T04:36:30.615Z,78.13
2018-05-21T04:37:30.485Z,78.22
2018-05-21T04:38:30.540Z,78.42
2018-05-21T04:39:30.462Z,77.26
2018-05-21T04:40:30.456Z,77.65
2018-05-21T04:41:30.440Z,77.50
2018-05-21T04:42:30.430Z,77.75
2018-05-21T04:43:30.408Z,78.22
2018-05-21T04:44:30.393Z,78.13
2018-05-21T04:45:30.376Z,77.65
2018-05-21T04:46:30.363Z,77.75
2018-05-21T04:47:30.359Z,77.78
2018-05-21T04:48:30.334Z,78.36
2018-05-21T04:49:30.321Z,78.07
2018-05-21T04:50:30.324Z,77.97
2018-05-21T04:51:30.295Z,78.45
2018-05-21T04:52:30.295Z,79.22
2018-05-21T04:53:30.274Z,78.51
2018-05-21T04:54:30.260Z,78.07
2018-05-21T04:55:30.251Z,78.36
2018-05-21T04:56:30.243Z,77.69
2018-05-21T04:57:30.219Z,77.88
2018-05-21T04:58:30.196Z,77.78
2018-05-21T04:59:30.193Z,77.78
2018-05-21T05:00:30.170Z,78.36
2018-05-21T05:01:30.152Z,78.27
2018-05-21T05:02:30.141Z,78.36
2018-05-21T05:03:30.129Z,78.84
2018-05-21T05:04:30.110Z,78.17
2018-05-21T05:05:30.110Z,78.84
2018-05-21T05:06:30.094Z,78.27
2018-05-21T05:07:30.083Z,79.03
2018-05-21T05:08:30.061Z,78.55
2018-05-21T05:09:30.056Z,78.84
2018-05-21T05:10:30.039Z,79.32
2018-05-21T05:11:30.020Z,79.22
2018-05-21T05:12:30.013Z,79.32
2018-05-21T05:13:30.010Z,79.80
2018-05-21T05:14:29.993Z,79.13
2018-05-21T05:15:29.951Z,80.37
2018-05-21T05:16:29.929Z,79.80
2018-05-21T05:17:29.910Z,80.66
2018-05-21T05:18:29.926Z,79.13
2018-05-21T05:19:29.907Z,80.56
2018-05-21T05:20:29.894Z,79.89
2018-05-21T05:21:29.884Z,80.18
2018-05-21T05:22:29.878Z,79.22
2018-05-21T05:23:29.865Z,79.60
2018-05-21T05:24:29.840Z,79.60
2018-05-21T05:25:29.847Z,79.41
2018-05-21T05:26:29.810Z,80.08
2018-05-21T05:27:29.810Z,79.60
2018-05-21T05:28:29.793Z,80.66
2018-05-21T05:29:29.778Z,79.41
2018-05-21T05:30:29.756Z,79.03
2018-05-21T05:31:29.759Z,79.22
2018-05-21T05:32:29.740Z,79.22
2018-05-21T05:33:29.723Z,79.13
2018-05-21T05:34:29.710Z,79.93
2018-05-21T05:35:29.698Z,78.88
2018-05-21T05:36:29.691Z,80.22
2018-05-21T05:37:29.640Z,78.30
2018-05-21T05:38:29.653Z,79.07
2018-05-21T05:39:29.656Z,79.36
2018-05-21T05:40:29.630Z,80.26
2018-05-21T05:41:29.627Z,78.82
2018-05-21T05:42:29.615Z,79.01
2018-05-21T05:43:29.599Z,79.01
2018-05-21T05:44:29.579Z,78.53
2018-05-21T05:45:29.569Z,79.21
2018-05-21T05:46:29.624Z,78.53
2018-05-21T05:47:29.532Z,78.92
2018-05-21T05:48:29.535Z,78.82
2018-05-21T05:49:29.526Z,77.95
2018-05-21T05:50:29.509Z,78.82
2018-05-21T05:51:29.487Z,79.11
2018-05-21T05:52:29.480Z,79.11
2018-05-21T05:53:29.461Z,80.45
2018-05-21T05:54:29.435Z,79.97
2018-05-21T05:55:29.439Z,78.63
2018-05-21T05:56:29.435Z,78.92
2018-05-21T05:57:29.416Z,80.07
2018-05-21T05:58:29.387Z,79.68
2018-05-21T05:59:29.384Z,78.82
2018-05-21T06:00:29.365Z,79.01
2018-05-21T06:01:29.365Z,79.30
2018-05-21T06:02:29.337Z,78.15
2018-05-21T06:03:29.392Z,78.47
2018-05-21T06:04:29.325Z,77.80
2018-05-21T06:05:29.317Z,78.47
2018-05-21T06:06:29.292Z,78.57
2018-05-21T06:07:29.272Z,77.90
2018-05-21T06:08:29.272Z,77.71
2018-05-21T06:09:31.989Z,78.13
2018-05-21T06:10:29.244Z,78.03
2018-05-21T06:11:29.228Z,76.31
2018-05-21T06:12:29.216Z,78.03
2018-05-21T06:13:29.200Z,76.50
2018-05-21T06:14:29.209Z,76.50
2018-05-21T06:15:29.174Z,76.31
2018-05-21T06:16:29.183Z,78.80
2018-05-21T06:17:29.165Z,78.13
2018-05-21T06:18:29.152Z,77.36
2018-05-21T06:19:29.123Z,78.03
2018-05-21T06:20:29.133Z,77.26
2018-05-21T06:21:29.100Z,76.54
2018-05-21T06:22:29.107Z,77.01
2018-05-21T06:23:29.097Z,76.92
2018-05-21T06:24:29.068Z,77.21
2018-05-21T06:25:29.063Z,76.82
2018-05-21T06:26:29.047Z,73.81
2018-05-21T06:27:29.027Z,75.15
2018-05-21T06:28:29.016Z,75.45
2018-05-21T06:29:29.028Z,76.73
2018-05-21T06:30:28.996Z,75.87
2018-05-21T06:31:28.980Z,77.50
2018-05-21T06:32:28.964Z,76.54
2018-05-21T06:33:28.974Z,75.87
2018-05-21T06:34:28.983Z,75.10
2018-05-21T06:35:28.939Z,75.38
2018-05-21T06:36:28.939Z,77.21
2018-05-21T06:37:28.915Z,77.31
2018-05-21T06:38:28.898Z,76.34
2018-05-21T06:39:28.887Z,74.23
2018-05-21T06:40:28.884Z,73.46
2018-05-21T06:41:28.888Z,74.23
2018-05-21T06:42:28.874Z,73.85
2018-05-21T06:43:28.856Z,75.38
2018-05-21T06:44:28.839Z,74.23
2018-05-21T06:45:28.816Z,74.33
2018-05-21T06:46:28.824Z,75.29
2018-05-21T06:47:28.815Z,75.67
2018-05-21T06:48:28.803Z,75.87
2018-05-21T06:49:28.777Z,74.27
2018-05-21T06:50:28.765Z,75.04
2018-05-21T06:51:28.761Z,73.79
2018-05-21T06:52:28.757Z,73.46
2018-05-21T06:53:28.726Z,73.79
2018-05-21T06:54:28.735Z,73.69
2018-05-21T06:55:28.719Z,73.79
2018-05-21T06:56:28.707Z,72.34
2018-05-21T06:57:28.697Z,72.73
2018-05-21T06:58:28.665Z,73.11
2018-05-21T06:59:28.659Z,73.60
2018-05-21T07:00:28.666Z,75.71
2018-05-21T07:01:28.655Z,75.52
2018-05-21T07:02:28.623Z,75.04
2018-05-21T07:03:28.609Z,74.60
2018-05-21T07:04:28.620Z,74.30
2018-05-21T07:05:28.605Z,73.92
2018-05-21T07:06:28.596Z,73.54
2018-05-21T07:07:28.567Z,72.44
2018-05-21T07:08:28.570Z,73.35
2018-05-21T07:09:28.567Z,73.54
2018-05-21T07:10:28.548Z,72.58
2018-05-21T07:11:28.538Z,74.98
2018-05-21T07:12:28.519Z,73.06
2018-05-21T07:13:28.519Z,73.35
2018-05-21T07:14:28.506Z,73.25
2018-05-21T07:15:28.478Z,74.30
2018-05-21T07:16:28.480Z,74.15
2018-05-21T07:17:28.474Z,72.61
2018-05-21T07:18:28.449Z,74.54
2018-05-21T07:19:28.439Z,71.84
2018-05-21T07:20:28.439Z,73.28
2018-05-21T07:21:28.430Z,72.32
2018-05-21T07:22:28.397Z,72.80
2018-05-21T07:23:28.390Z,72.26
2018-05-21T07:24:28.423Z,76.11
2018-05-21T07:25:28.390Z,76.50
2018-05-21T07:26:28.371Z,71.69
2018-05-21T07:27:28.348Z,71.72
2018-05-21T07:28:28.336Z,69.99
2018-05-21T07:29:28.326Z,71.24
2018-05-21T07:30:28.311Z,70.09
2018-05-21T07:31:28.326Z,70.21
2018-05-21T07:32:28.307Z,68.16
2018-05-21T07:33:28.298Z,68.58
2018-05-21T07:34:28.285Z,68.58
2018-05-21T07:35:28.285Z,68.13
2018-05-21T07:36:28.262Z,67.88
2018-05-21T07:37:28.253Z,67.10
2018-05-21T07:38:28.253Z,67.65
2018-05-21T07:39:28.240Z,65.08
2018-05-21T07:40:28.237Z,62.92
2018-05-21T07:41:28.221Z,63.40
2018-05-21T07:42:28.201Z,63.79
2018-05-21T07:43:28.210Z,63.63
2018-05-21T07:44:28.194Z,62.76
2018-05-21T07:45:28.188Z,62.54
2018-05-21T07:46:28.178Z,63.89
2018-05-21T07:47:28.185Z,63.70
2018-05-21T07:48:28.164Z,62.63
2018-05-21T07:49:28.237Z,62.18
2018-05-21T07:50:28.164Z,62.25
2018-05-21T07:51:28.175Z,63.02
2018-05-21T07:52:28.130Z,61.80
2018-05-21T07:53:28.143Z,62.57
2018-05-21T07:54:28.133Z,63.66
2018-05-21T07:55:28.111Z,61.44
2018-05-21T07:56:28.101Z,63.08
2018-05-21T07:57:28.117Z,61.95
2018-05-21T07:58:28.101Z,61.27
2018-05-21T07:59:28.082Z,59.28
2018-05-21T08:00:28.077Z,62.69
2018-05-21T08:01:28.085Z,58.63
2018-05-21T08:02:28.085Z,61.05
2018-05-21T08:03:28.063Z,59.47
2018-05-21T08:04:28.058Z,59.47
2018-05-21T08:05:28.059Z,58.80
2018-05-21T08:06:28.060Z,60.53
2018-05-21T08:07:28.051Z,59.12
2018-05-21T08:08:28.044Z,60.16
2018-05-21T08:09:28.025Z,61.77
2018-05-21T08:10:28.028Z,62.51
2018-05-21T08:11:28.006Z,66.14
2018-05-21T08:12:28.025Z,63.92
2018-05-21T08:13:27.999Z,61.02
2018-05-21T08:14:28.019Z,60.64
2018-05-21T08:15:27.989Z,61.92
2018-05-21T08:16:28.000Z,62.79
2018-05-21T08:17:27.993Z,61.05
2018-05-21T08:18:27.989Z,62.98
2018-05-21T08:19:27.968Z,62.82
2018-05-21T08:20:27.963Z,62.56
2018-05-21T08:21:27.973Z,60.05
2018-05-21T08:22:27.967Z,59.95
2018-05-21T08:23:27.952Z,60.41
2018-05-21T08:24:27.949Z,60.60
2018-05-21T08:25:27.944Z,61.95
2018-05-21T08:26:27.932Z,61.66
2018-05-21T08:27:27.948Z,61.08
2018-05-21T08:28:27.935Z,62.85
2018-05-21T08:29:27.932Z,61.21
2018-05-21T08:30:27.910Z,59.40
2018-05-21T08:31:27.903Z,63.21
2018-05-21T08:32:27.909Z,59.21
2018-05-21T08:33:27.901Z,58.40
2018-05-21T08:34:27.884Z,58.50
2018-05-21T08:35:27.855Z,59.69
2018-05-21T08:36:27.852Z,58.72
2018-05-21T08:37:27.849Z,59.56
2018-05-21T08:38:27.843Z,59.83
2018-05-21T08:39:27.840Z,62.08
2018-05-21T08:40:27.829Z,59.95
2018-05-21T08:41:27.823Z,61.98
2018-05-21T08:42:27.826Z,61.82
2018-05-21T08:43:27.824Z,60.85
2018-05-21T08:44:27.810Z,59.89
2018-05-21T08:45:27.806Z,59.01
2018-05-21T08:46:27.803Z,60.27
2018-05-21T08:47:27.797Z,59.18
2018-05-21T08:48:27.876Z,60.14
2018-05-21T08:49:27.787Z,60.41
2018-05-21T08:50:27.777Z,60.79
2018-05-21T08:51:27.784Z,62.34
2018-05-21T08:52:27.850Z,59.44
2018-05-21T08:53:27.765Z,59.92
2018-05-21T08:54:27.762Z,59.92
2018-05-21T08:55:27.755Z,61.18
2018-05-21T08:56:27.755Z,61.40
2018-05-21T08:57:27.740Z,60.24
2018-05-21T08:58:27.742Z,59.08
2018-05-21T08:59:27.732Z,59.15
2018-05-21T09:00:27.733Z,60.14
2018-05-21T09:01:27.720Z,61.50
2018-05-21T09:02:27.724Z,61.53
2018-05-21T09:03:27.708Z,60.66
2018-05-21T09:04:27.707Z,59.11
2018-05-21T09:05:27.704Z,59.11
2018-05-21T09:06:27.730Z,58.04
2018-05-21T09:07:27.714Z,60.57
2018-05-21T09:08:27.715Z,58.50
2018-05-21T09:09:27.703Z,59.73
2018-05-21T09:10:27.711Z,59.89
2018-05-21T09:11:27.704Z,59.80
2018-05-21T09:12:27.791Z,62.21
2018-05-21T09:13:27.711Z,63.53
2018-05-21T09:14:27.689Z,60.11
2018-05-21T09:15:27.685Z,61.21
2018-05-21T09:16:27.764Z,59.73
2018-05-21T09:17:27.663Z,60.99
2018-05-21T09:18:27.662Z,61.21
2018-05-21T09:19:27.672Z,60.60
2018-05-21T09:20:27.654Z,60.60
2018-05-21T09:21:27.645Z,60.28
2018-05-21T09:22:27.654Z,63.28
2018-05-21T09:23:27.627Z,60.79
2018-05-21T09:24:27.631Z,62.12
2018-05-21T09:25:27.621Z,61.18
2018-05-21T09:26:27.614Z,60.11
2018-05-21T09:27:27.621Z,60.09
2018-05-21T09:28:27.617Z,60.11
2018-05-21T09:29:27.608Z,61.08
2018-05-21T09:30:27.604Z,59.15
2018-05-21T09:31:27.641Z,58.98
2018-05-21T09:32:27.656Z,59.56
2018-05-21T09:33:27.579Z,62.50
2018-05-21T09:34:27.582Z,59.01
2018-05-21T09:35:27.569Z,58.70
2018-05-21T09:36:27.564Z,61.33
2018-05-21T09:37:27.570Z,59.31
2018-05-21T09:38:27.551Z,59.69
2018-05-21T09:39:27.557Z,59.59
2018-05-21T09:40:27.546Z,58.12
2018-05-21T09:41:27.528Z,59.47
2018-05-21T09:42:27.540Z,62.50
2018-05-21T09:43:27.534Z,61.82
2018-05-21T09:44:27.515Z,58.72
2018-05-21T09:45:28.012Z,59.40
2018-05-21T09:46:27.515Z,58.44
2018-05-21T09:47:27.505Z,60.75
2018-05-21T09:48:27.499Z,61.18
2018-05-21T09:49:27.509Z,58.27
2018-05-21T09:50:27.480Z,60.01
2018-05-21T09:51:27.486Z,57.37
2018-05-21T09:52:27.475Z,60.47
2018-05-21T09:53:27.473Z,59.50
2018-05-21T09:54:27.464Z,60.98
2018-05-21T09:55:27.473Z,62.34
2018-05-21T09:56:27.471Z,59.56
2018-05-21T09:57:27.455Z,56.92
2018-05-21T09:58:27.461Z,60.43
2018-05-21T09:59:27.451Z,59.43
2018-05-21T10:00:27.448Z,59.82
2018-05-21T10:01:27.448Z,58.17
2018-05-21T10:02:27.431Z,58.21
2018-05-21T10:03:27.435Z,59.18
2018-05-21T10:04:27.418Z,57.37
2018-05-21T10:05:27.419Z,60.08
2018-05-21T10:06:27.426Z,60.27
2018-05-21T10:07:27.412Z,57.46
2018-05-21T10:08:27.406Z,57.28
2018-05-21T10:09:27.417Z,58.37
2018-05-21T10:10:27.395Z,60.91
2018-05-21T10:11:27.411Z,61.11
2018-05-21T10:12:27.393Z,62.75
2018-05-21T10:13:27.395Z,58.20
2018-05-21T10:14:27.383Z,58.42
2018-05-21T10:15:27.392Z,56.85
2018-05-21T10:16:27.373Z,56.52
2018-05-21T10:17:27.370Z,57.50
2018-05-21T10:18:27.378Z,56.07
2018-05-21T10:19:27.390Z,60.85
2018-05-21T10:20:27.360Z,60.07
2018-05-21T10:21:27.373Z,56.94
2018-05-21T10:22:27.357Z,59.49
2018-05-21T10:23:27.360Z,57.45
2018-05-21T10:24:27.371Z,56.85
2018-05-21T10:25:27.357Z,56.94
2018-05-21T10:26:27.383Z,55.76
2018-05-21T10:27:27.360Z,59.33
2018-05-21T10:28:27.348Z,60.43
2018-05-21T10:29:27.364Z,57.81
2018-05-21T10:30:27.341Z,56.34
2018-05-21T10:31:27.355Z,59.72
2018-05-21T10:32:27.351Z,59.46
2018-05-21T10:33:27.341Z,56.75
2018-05-21T10:34:27.343Z,57.30
2018-05-21T10:35:27.341Z,56.79
2018-05-21T10:36:27.352Z,57.76
2018-05-21T10:37:27.345Z,58.47
2018-05-21T10:38:27.345Z,59.46
2018-05-21T10:39:27.341Z,57.43
2018-05-21T10:40:27.332Z,58.33
2018-05-21T10:41:27.322Z,58.23
2018-05-21T10:42:27.332Z,59.03
2018-05-21T10:43:27.322Z,57.48
2018-05-21T10:44:27.338Z,58.26
2018-05-21T10:45:27.319Z,56.39
2018-05-21T10:46:27.335Z,57.84
2018-05-21T10:47:27.319Z,59.42
2018-05-21T10:48:27.338Z,59.16
2018-05-21T10:49:27.329Z,61.25
2018-05-21T10:50:27.339Z,60.02
2018-05-21T10:51:27.345Z,57.98
2018-05-21T10:52:27.325Z,57.04
2018-05-21T10:53:27.326Z,58.31
2018-05-21T10:54:27.316Z,55.10
2018-05-21T10:55:27.328Z,53.49
2018-05-21T10:56:27.332Z,53.37
2018-05-21T10:57:27.362Z,57.06
2018-05-21T10:58:27.335Z,55.82
2018-05-21T10:59:27.336Z,55.92
2018-05-21T11:00:27.326Z,55.41
2018-05-21T11:01:27.341Z,53.89
2018-05-21T11:02:27.348Z,56.71
2018-05-21T11:03:27.348Z,54.28
2018-05-21T11:04:27.344Z,56.41
2018-05-21T11:05:27.350Z,56.71
2018-05-21T11:06:27.340Z,55.04
2018-05-21T11:07:27.344Z,57.26
2018-05-21T11:08:27.351Z,54.86
2018-05-21T11:09:27.348Z,56.13
2018-05-21T11:10:27.362Z,58.16
2018-05-21T11:11:27.354Z,54.96
2018-05-21T11:12:27.351Z,57.87
2018-05-21T11:13:27.364Z,55.74
2018-05-21T11:14:27.345Z,56.41
2018-05-21T11:15:27.347Z,57.19
2018-05-21T11:16:27.393Z,54.58
2018-05-21T11:17:27.356Z,55.74
2018-05-21T11:18:27.362Z,54.28
2018-05-21T11:19:27.357Z,55.54
2018-05-21T11:20:27.360Z,54.09
2018-05-21T11:21:27.364Z,55.74
2018-05-21T11:22:27.354Z,54.55
2018-05-21T11:23:27.364Z,53.36
2018-05-21T11:24:27.358Z,55.00
2018-05-21T11:25:27.361Z,55.68
2018-05-21T11:26:27.364Z,56.97
2018-05-21T11:27:27.367Z,54.74
2018-05-21T11:28:27.380Z,55.06
2018-05-21T11:29:27.371Z,52.80
2018-05-21T11:30:27.364Z,56.71
2018-05-21T11:31:27.358Z,54.77
2018-05-21T11:32:27.377Z,53.70
2018-05-21T11:33:27.377Z,53.12
2018-05-21T11:34:27.338Z,53.27
2018-05-21T11:35:27.338Z,52.40
2018-05-21T11:36:27.338Z,54.20
2018-05-21T11:37:27.335Z,54.25
2018-05-21T11:38:27.341Z,50.56
2018-05-21T11:39:27.348Z,50.65
2018-05-21T11:40:27.348Z,50.46
2018-05-21T11:41:27.351Z,49.68
2018-05-21T11:42:27.354Z,48.80
2018-05-21T11:43:27.357Z,48.90
2018-05-21T11:44:27.361Z,50.38
2018-05-21T11:45:27.373Z,47.66
2018-05-21T11:46:27.433Z,46.33
2018-05-21T11:47:27.377Z,48.49
2018-05-21T11:48:27.382Z,50.94
2018-05-21T11:49:27.383Z,50.68
2018-05-21T11:50:27.389Z,48.90
2018-05-21T11:51:27.396Z,49.19
2018-05-21T11:52:27.396Z,50.53
2018-05-21T11:53:27.405Z,51.59
2018-05-21T11:54:27.409Z,53.59
2018-05-21T11:55:27.411Z,52.64
2018-05-21T11:56:27.418Z,53.22
2018-05-21T11:57:27.423Z,52.19
2018-05-21T11:58:27.428Z,50.36
2018-05-21T11:59:27.492Z,53.69
2018-05-21T12:00:27.439Z,50.48
2018-05-21T12:01:27.444Z,48.56
2018-05-21T12:02:27.442Z,50.99
2018-05-21T12:03:27.442Z,52.19
2018-05-21T12:04:27.455Z,52.14
2018-05-21T12:05:27.462Z,52.09
2018-05-21T12:06:27.463Z,47.83
2018-05-21T12:07:27.468Z,47.92
2018-05-21T12:08:27.477Z,48.93
2018-05-21T12:09:27.484Z,46.59
2018-05-21T12:10:27.493Z,49.99
2018-05-21T12:11:27.493Z,45.81
2018-05-21T12:12:27.500Z,45.88
2018-05-21T12:13:27.568Z,48.05
2018-05-21T12:14:27.509Z,46.70
2018-05-21T12:15:27.528Z,44.10
2018-05-21T12:16:27.538Z,45.94
2018-05-21T12:17:27.528Z,48.46
2018-05-21T12:18:27.538Z,48.66
2018-05-21T12:19:27.544Z,48.88
2018-05-21T12:20:27.554Z,50.36
2018-05-21T12:21:27.560Z,47.27
2018-05-21T12:22:27.648Z,45.73
2018-05-21T12:23:27.583Z,46.00
2018-05-21T12:24:27.584Z,49.63
2018-05-21T12:25:27.590Z,46.31
2018-05-21T12:26:27.598Z,49.46
2018-05-21T12:27:27.605Z,43.57
2018-05-21T12:28:27.612Z,43.95
2018-05-21T12:29:27.622Z,44.23
2018-05-21T12:30:27.629Z,45.00
2018-05-21T12:31:27.642Z,45.39
2018-05-21T12:32:27.689Z,45.37
2018-05-21T12:33:27.651Z,45.28
2018-05-21T12:34:27.666Z,45.35
2018-05-21T12:35:27.669Z,45.91
2018-05-21T12:36:27.674Z,46.88
2018-05-21T12:37:27.683Z,46.13
2018-05-21T12:38:27.694Z,48.34
2018-05-21T12:39:27.692Z,46.51
2018-05-21T12:40:27.699Z,49.95
2018-05-21T12:41:27.708Z,50.92
2018-05-21T12:42:27.712Z,49.24
2018-05-21T12:43:27.712Z,44.45
2018-05-21T12:44:27.723Z,47.17
2018-05-21T12:45:27.731Z,45.97
2018-05-21T12:46:27.737Z,47.52
2018-05-21T12:47:27.734Z,50.36
2018-05-21T12:48:27.740Z,51.65
2018-05-21T12:49:27.743Z,49.99
2018-05-21T12:50:27.747Z,47.96
2018-05-21T12:51:27.756Z,47.69
2018-05-21T12:52:27.753Z,49.17